Time;durP1;ratioP1;P1;durP2;ratioP2;P2;SDS_P1;SDS_P2;PMS_P1;PMS_P2;Temp;Humidity;BMP_temperature;BMP_pressure;BME280_temperature;BME280_humidity;BME280_pressure;Samples;Min_cycle;Max_cycle;Signal;HPM_P1;HPM_P2
2022/04/16 00:01:45;;;;;;;3.92;1.27;;;15.30;99.90;;;;;;5036331;28;20020;-88
2022/04/16 00:04:11;;;;;;;6.00;1.50;;;15.30;99.90;;;;;;5054726;28;20104;-88
2022/04/16 00:06:37;;;;;;;2.78;1.30;;;15.30;99.90;;;;;;5036638;28;20122;-88
2022/04/16 00:09:03;;;;;;;1.63;1.25;;;15.30;99.90;;;;;;5054510;28;20035;-89
2022/04/16 00:11:29;;;;;;;4.03;1.20;;;15.30;99.90;;;;;;5036593;28;20028;-89
2022/04/16 00:13:55;;;;;;;2.60;1.30;;;15.30;99.90;;;;;;5036866;28;20025;-89
2022/04/16 00:16:20;;;;;;;1.52;1.30;;;15.20;99.90;;;;;;5054784;28;20090;-89
2022/04/16 00:18:46;;;;;;;1.98;1.40;;;15.20;99.90;;;;;;5036814;28;20064;-88
2022/04/16 00:21:12;;;;;;;2.63;1.38;;;15.20;99.90;;;;;;5053839;28;20454;-88
2022/04/16 00:23:41;;;;;;;2.72;1.10;;;15.20;99.90;;;;;;5036855;28;20032;-89
2022/04/16 00:26:07;;;;;;;2.22;1.10;;;15.20;99.90;;;;;;5036396;28;20037;-89
2022/04/16 00:28:35;;;;;;;3.53;1.35;;;15.20;99.90;;;;;;5036531;28;20020;-89
2022/04/16 00:31:01;;;;;;;5.05;1.35;;;15.20;99.90;;;;;;5035892;28;20021;-88
2022/04/16 00:33:27;;;;;;;4.07;1.50;;;15.20;99.90;;;;;;5035914;28;20542;-89
2022/04/16 00:35:53;;;;;;;1.63;1.17;;;15.20;99.90;;;;;;5053835;28;20028;-89
2022/04/16 00:38:19;;;;;;;5.22;1.52;;;15.10;99.90;;;;;;5035717;28;20056;-89
2022/04/16 00:40:45;;;;;;;2.88;1.30;;;15.10;99.90;;;;;;5035868;28;20048;-89
2022/04/16 00:43:25;;;;;;;2.35;1.20;;;15.10;99.90;;;;;;5053591;28;20513;-89
2022/04/16 00:45:52;;;;;;;3.10;1.30;;;15.10;99.90;;;;;;5035557;28;20029;-89
2022/04/16 00:48:18;;;;;;;2.20;1.27;;;15.10;99.90;;;;;;5036346;28;20075;-89
2022/04/16 00:50:44;;;;;;;3.97;1.50;;;15.10;99.90;;;;;;5035913;28;20419;-89
2022/04/16 00:53:12;;;;;;;1.85;1.17;;;15.10;99.90;;;;;;5036019;28;20021;-89
2022/04/16 00:55:38;;;;;;;3.70;1.40;;;15.10;99.90;;;;;;5036801;28;20021;-89
2022/04/16 00:58:04;;;;;;;2.85;1.20;;;15.10;99.90;;;;;;5036070;28;20425;-89
2022/04/16 01:00:29;;;;;;;1.80;1.33;;;15.00;99.90;;;;;;5036106;28;20024;-89
2022/04/16 01:02:56;;;;;;;3.80;2.00;;;15.00;99.90;;;;;;5053701;28;20021;-88
2022/04/16 01:05:22;;;;;;;2.42;1.70;;;15.00;99.90;;;;;;5035925;28;20021;-89
2022/04/16 01:07:53;;;;;;;3.17;1.55;;;15.00;99.90;;;;;;5035959;28;20431;-88
2022/04/16 01:10:25;;;;;;;3.22;1.70;;;15.00;99.90;;;;;;5035407;28;20021;-89
2022/04/16 01:12:52;;;;;;;3.65;1.35;;;15.00;99.90;;;;;;5035285;28;20025;-89
2022/04/16 01:15:20;;;;;;;2.10;1.63;;;15.00;99.90;;;;;;5035262;28;20029;-89
2022/04/16 01:17:47;;;;;;;2.15;1.50;;;15.00;99.90;;;;;;5035146;28;20029;-89
2022/04/16 01:20:14;;;;;;;2.78;1.83;;;14.90;99.90;;;;;;5053198;28;20388;-88
2022/04/16 01:22:40;;;;;;;4.47;1.70;;;15.00;99.90;;;;;;5034986;28;20053;-89
2022/04/16 01:25:07;;;;;;;3.30;1.60;;;14.90;99.90;;;;;;5035380;28;20079;-89
2022/04/16 01:27:35;;;;;;;2.47;1.65;;;14.90;99.90;;;;;;5035029;28;20116;-88
2022/04/16 01:30:03;;;;;;;4.28;2.00;;;14.90;99.90;;;;;;5035242;28;20427;-89
2022/04/16 01:32:29;;;;;;;3.38;2.00;;;14.90;99.90;;;;;;5053041;28;20100;-89
2022/04/16 01:34:55;;;;;;;3.40;2.08;;;14.90;99.90;;;;;;5056093;28;20025;-89
2022/04/16 01:37:23;;;;;;;4.10;1.83;;;14.90;99.90;;;;;;5039268;28;20078;-89
2022/04/16 01:39:49;;;;;;;3.60;1.95;;;14.90;99.90;;;;;;5039114;28;20060;-89
2022/04/16 01:42:14;;;;;;;3.70;2.03;;;14.80;99.90;;;;;;5039315;28;20056;-89
2022/04/16 01:44:43;;;;;;;4.97;2.50;;;14.80;99.90;;;;;;5039787;28;20111;-89
2022/04/16 01:47:10;;;;;;;4.43;2.30;;;14.80;99.90;;;;;;5039801;28;20048;-89
2022/04/16 01:49:36;;;;;;;5.25;1.88;;;14.80;99.90;;;;;;5039436;28;20028;-89
2022/04/16 01:52:03;;;;;;;3.45;1.80;;;14.80;99.90;;;;;;5039665;28;20021;-89
2022/04/16 01:54:28;;;;;;;3.95;1.90;;;14.80;99.90;;;;;;5039381;28;20060;-89
2022/04/16 01:56:54;;;;;;;4.60;2.22;;;14.80;99.90;;;;;;5038882;28;20029;-89
2022/04/16 01:59:20;;;;;;;3.55;2.15;;;14.80;99.90;;;;;;5039044;28;20035;-89
2022/04/16 02:01:45;;;;;;;3.40;2.03;;;14.70;99.90;;;;;;5056683;28;20053;-89
2022/04/16 02:04:11;;;;;;;3.58;2.28;;;14.80;99.90;;;;;;5038635;28;20591;-89
2022/04/16 02:06:37;;;;;;;4.65;2.15;;;14.70;99.90;;;;;;5039338;28;20025;-89
2022/04/16 02:09:03;;;;;;;4.75;2.33;;;14.70;99.90;;;;;;5056721;28;20029;-89
2022/04/16 02:11:32;;;;;;;3.67;2.08;;;14.70;99.90;;;;;;5039046;28;20435;-89
2022/04/16 02:13:57;;;;;;;3.95;2.30;;;14.70;99.90;;;;;;5057123;28;20100;-89
2022/04/16 02:16:24;;;;;;;3.33;2.00;;;14.70;99.90;;;;;;5039224;28;20435;-88
2022/04/16 02:18:51;;;;;;;3.42;2.20;;;14.70;99.90;;;;;;5056087;28;20021;-89
2022/04/16 02:21:19;;;;;;;6.53;1.98;;;14.70;99.90;;;;;;5038850;28;20461;-89
2022/04/16 02:23:45;;;;;;;5.05;2.10;;;14.60;99.90;;;;;;5038302;28;20032;-88
2022/04/16 02:26:11;;;;;;;3.60;1.90;;;14.60;99.90;;;;;;5038147;28;20025;-89
2022/04/16 02:28:37;;;;;;;5.32;2.45;;;14.60;99.90;;;;;;5038250;28;20388;-89
2022/04/16 02:31:02;;;;;;;5.53;2.00;;;14.60;99.90;;;;;;5038244;28;20110;-90
2022/04/16 02:33:30;;;;;;;4.07;2.40;;;14.60;99.90;;;;;;5038094;28;20025;-89
2022/04/16 02:35:57;;;;;;;4.60;2.20;;;14.60;99.90;;;;;;5038099;28;20028;-89
2022/04/16 02:38:23;;;;;;;4.70;2.10;;;14.60;99.90;;;;;;5038377;28;20057;-89
2022/04/16 02:40:49;;;;;;;3.72;2.15;;;14.60;99.90;;;;;;5056487;28;20036;-89
2022/04/16 02:43:14;;;;;;;3.40;2.10;;;14.60;99.90;;;;;;5038744;28;20021;-89
2022/04/16 02:48:25;;;;;;;2.40;1.67;;;14.60;99.90;;;;;;5057259;28;20131;-89
2022/04/16 02:50:53;;;;;;;3.35;1.85;;;14.50;99.90;;;;;;5038204;28;20512;-89
2022/04/16 02:53:18;;;;;;;2.83;1.90;;;14.50;99.90;;;;;;5056423;28;20472;-89
2022/04/16 02:55:46;;;;;;;3.60;1.95;;;14.50;99.90;;;;;;5056282;28;20028;-89
2022/04/16 02:58:13;;;;;;;3.05;1.80;;;14.50;99.90;;;;;;5038101;28;20530;-89
2022/04/16 03:00:39;;;;;;;5.80;1.90;;;14.50;99.90;;;;;;5037578;28;20021;-89
2022/04/16 03:03:05;;;;;;;5.75;2.08;;;14.50;99.90;;;;;;5037597;28;20017;-89
2022/04/16 03:05:31;;;;;;;2.75;1.90;;;14.50;99.90;;;;;;5037460;28;20028;-89
2022/04/16 03:07:57;;;;;;;3.15;1.90;;;14.50;99.90;;;;;;5037581;28;20021;-88
2022/04/16 03:10:23;;;;;;;4.30;2.38;;;14.40;99.90;;;;;;5037556;28;20017;-89
2022/04/16 03:12:55;;;;;;;8.95;2.95;;;14.40;99.90;;;;;;5055412;28;20469;-89
2022/04/16 03:18:07;;;;;;;4.47;2.58;;;14.40;99.90;;;;;;5055722;28;20036;-89
2022/04/16 03:20:33;;;;;;;3.67;2.15;;;14.40;99.90;;;;;;5037612;28;20407;-89
2022/04/16 03:23:00;;;;;;;6.35;2.03;;;14.40;99.90;;;;;;5017840;28;20038;-89
2022/04/16 03:25:27;;;;;;;5.07;1.92;;;14.40;99.90;;;;;;5035845;28;20025;-89
2022/04/16 03:27:54;;;;;;;3.45;1.80;;;14.40;99.90;;;;;;5035520;28;20032;-89
2022/04/16 03:30:20;;;;;;;3.95;1.80;;;14.40;99.90;;;;;;5035327;28;20473;-88
2022/04/16 03:32:48;;;;;;;3.85;1.85;;;14.30;99.90;;;;;;5035409;28;20022;-89
2022/04/16 03:35:14;;;;;;;3.08;1.77;;;14.30;99.90;;;;;;5017511;28;20052;-89
2022/04/16 03:37:40;;;;;;;3.15;1.92;;;14.30;99.90;;;;;;5018072;28;20122;-89
2022/04/16 03:40:07;;;;;;;3.85;1.77;;;14.30;99.90;;;;;;5017734;28;20030;-88
2022/04/16 03:42:32;;;;;;;4.53;2.03;;;14.30;99.90;;;;;;5017600;28;20534;-89
2022/04/16 03:45:00;;;;;;;4.50;1.95;;;14.30;99.90;;;;;;5017734;28;20037;-89
2022/04/16 03:47:27;;;;;;;2.80;1.70;;;14.30;99.90;;;;;;5035161;28;20109;-89
2022/04/16 03:49:53;;;;;;;3.15;2.00;;;14.20;99.90;;;;;;5035178;28;20085;-89
2022/04/16 03:52:19;;;;;;;5.10;1.60;;;14.20;99.90;;;;;;5017352;28;20049;-89
2022/04/16 04:00:13;;;;;;;3.88;1.58;;;14.20;99.90;;;;;;5035359;28;20037;-88
2022/04/16 04:02:39;;;;;;;2.47;1.50;;;14.20;99.90;;;;;;5016652;28;20527;-89
2022/04/16 04:05:07;;;;;;;2.38;1.50;;;14.20;99.90;;;;;;5034299;28;20029;-88
2022/04/16 04:07:33;;;;;;;2.10;1.48;;;14.10;99.90;;;;;;5017033;28;20460;-89
2022/04/16 04:09:59;;;;;;;1.85;1.30;;;14.10;99.90;;;;;;5017123;28;20055;-89
2022/04/16 04:12:26;;;;;;;2.58;1.60;;;14.10;99.90;;;;;;5016637;28;20119;-89
2022/04/16 04:14:52;;;;;;;5.18;1.58;;;14.10;99.90;;;;;;5016895;28;20046;-89
2022/04/16 04:17:17;;;;;;;3.33;1.30;;;14.10;99.90;;;;;;5016865;28;20025;-89
2022/04/16 04:19:47;;;;;;;1.83;1.30;;;14.10;99.90;;;;;;5016781;28;20397;-89
2022/04/16 04:22:15;;;;;;;2.75;1.45;;;14.10;99.90;;;;;;5048278;28;20411;-88
2022/04/16 04:24:42;;;;;;;1.98;1.40;;;14.10;99.90;;;;;;5054763;28;20476;-89
2022/04/16 04:27:08;;;;;;;3.03;1.40;;;14.10;99.90;;;;;;5036687;28;20056;-89
2022/04/16 04:29:35;;;;;;;3.47;1.20;;;14.10;99.90;;;;;;5036715;28;20424;-89
2022/04/16 04:32:01;;;;;;;2.30;1.48;;;14.10;99.90;;;;;;5053843;28;20047;-88
2022/04/16 04:34:26;;;;;;;2.42;1.33;;;14.10;99.90;;;;;;5035952;28;20120;-88
2022/04/16 04:36:52;;;;;;;2.20;1.40;;;14.00;99.90;;;;;;5053949;28;20135;-89
2022/04/16 04:39:18;;;;;;;4.85;1.35;;;14.00;99.90;;;;;;5053631;28;20044;-89
2022/04/16 04:41:44;;;;;;;8.10;2.00;;;14.00;99.90;;;;;;5035730;28;20029;-89
2022/04/16 04:44:14;;;;;;;2.17;1.38;;;14.00;99.90;;;;;;5053631;28;20472;-89
2022/04/16 04:46:41;;;;;;;4.18;1.55;;;14.00;99.90;;;;;;5035586;28;20021;-89
2022/04/16 04:49:08;;;;;;;3.55;1.40;;;14.00;99.90;;;;;;5053950;28;20099;-88
2022/04/16 04:51:35;;;;;;;2.05;1.50;;;13.90;99.90;;;;;;5053745;28;20067;-88
2022/04/16 04:54:01;;;;;;;2.00;1.23;;;14.00;99.90;;;;;;5053672;28;20017;-89
2022/04/16 04:56:28;;;;;;;4.15;1.40;;;14.00;99.90;;;;;;5035912;28;20033;-89
2022/04/16 04:58:54;;;;;;;2.22;1.50;;;14.00;99.90;;;;;;5036717;28;20043;-89
2022/04/16 05:01:19;;;;;;;1.90;1.30;;;14.00;99.90;;;;;;5035869;28;20151;-89
2022/04/16 05:03:45;;;;;;;1.63;1.38;;;14.00;99.90;;;;;;5035793;28;20036;-89
2022/04/16 05:06:11;;;;;;;3.42;1.30;;;13.90;99.90;;;;;;5035713;28;20025;-89
2022/04/16 05:08:36;;;;;;;1.63;1.23;;;13.90;99.90;;;;;;5035552;28;20024;-88
2022/04/16 05:11:02;;;;;;;1.75;1.13;;;13.90;99.90;;;;;;5035703;28;20046;-89
2022/04/16 05:13:28;;;;;;;2.30;1.10;;;13.90;99.90;;;;;;5035834;28;20108;-89
2022/04/16 05:15:53;;;;;;;2.45;1.40;;;13.90;99.90;;;;;;5053034;28;20033;-88
2022/04/16 05:18:19;;;;;;;1.63;1.25;;;13.90;99.90;;;;;;5035599;28;20028;-89
2022/04/16 05:20:45;;;;;;;1.80;1.30;;;13.90;99.90;;;;;;5034931;28;20094;-89
2022/04/16 05:23:10;;;;;;;2.33;1.42;;;13.90;99.90;;;;;;5053354;28;20380;-88
2022/04/16 05:25:36;;;;;;;2.08;1.30;;;13.90;99.90;;;;;;5035620;28;20392;-89
2022/04/16 05:28:02;;;;;;;3.28;1.20;;;13.90;99.90;;;;;;5035356;28;20108;-88
2022/04/16 05:30:44;;;;;;;1.98;1.30;;;13.90;99.90;;;;;;5035297;28;20400;-88
2022/04/16 05:34:18;;;;;;;1.58;1.17;;;13.90;99.90;;;;;;5053104;28;20064;-89
2022/04/16 05:36:02;;;;;;;1.35;1.10;;;13.90;99.90;;;;;;5052884;28;20020;-88
2022/04/16 05:38:28;;;;;;;2.45;1.45;;;13.90;99.90;;;;;;5035333;28;20025;-89
2022/04/16 05:40:54;;;;;;;1.75;1.33;;;13.80;99.90;;;;;;5053407;28;20028;-88
2022/04/16 05:43:19;;;;;;;3.05;1.23;;;13.90;99.90;;;;;;5035438;28;20025;-88
2022/04/16 05:45:45;;;;;;;2.20;1.30;;;13.90;99.90;;;;;;5035350;28;20029;-89
2022/04/16 05:48:11;;;;;;;3.72;1.20;;;13.90;99.90;;;;;;5035427;28;20021;-89
2022/04/16 05:50:37;;;;;;;2.00;1.60;;;13.90;99.90;;;;;;5035544;28;20452;-88
2022/04/16 05:53:06;;;;;;;3.42;2.13;;;13.90;99.90;;;;;;5052987;28;20503;-88
2022/04/16 05:55:32;;;;;;;2.20;1.90;;;13.90;99.90;;;;;;5035282;28;20025;-88
2022/04/16 05:57:58;;;;;;;2.42;2.03;;;13.90;99.90;;;;;;5035965;28;20032;-88
2022/04/16 06:00:24;;;;;;;3.40;2.05;;;13.90;99.90;;;;;;5034770;28;20037;-88
2022/04/16 06:02:50;;;;;;;4.68;2.00;;;13.90;99.90;;;;;;5034910;28;20143;-89
2022/04/16 06:05:16;;;;;;;2.22;1.90;;;14.00;99.90;;;;;;5053114;28;20028;-88
2022/04/16 06:07:42;;;;;;;3.28;2.10;;;13.90;99.90;;;;;;5034990;28;20029;-88
2022/04/16 06:10:08;;;;;;;3.50;2.00;;;13.90;99.90;;;;;;5035196;28;20048;-88
2022/04/16 06:12:34;;;;;;;3.60;2.20;;;13.90;99.90;;;;;;5035145;28;20033;-88
2022/04/16 06:15:00;;;;;;;2.10;1.60;;;13.90;99.90;;;;;;5035320;28;20031;-88
2022/04/16 06:17:26;;;;;;;2.05;1.70;;;13.90;99.90;;;;;;5035008;28;20025;-88
2022/04/16 06:19:51;;;;;;;2.40;1.80;;;13.90;99.90;;;;;;5035932;28;20025;-88
2022/04/16 06:22:17;;;;;;;3.78;1.90;;;13.90;99.90;;;;;;5038552;28;20106;-88
2022/04/16 06:24:43;;;;;;;2.40;1.80;;;13.90;99.90;;;;;;5038578;28;20115;-88
2022/04/16 06:27:09;;;;;;;3.53;1.42;;;13.90;99.90;;;;;;5056513;28;20108;-88
2022/04/16 06:29:35;;;;;;;2.28;1.70;;;13.90;99.90;;;;;;5038433;28;20047;-88
2022/04/16 06:32:00;;;;;;;1.70;1.45;;;13.90;99.90;;;;;;5038430;28;20020;-88
2022/04/16 06:34:27;;;;;;;1.92;1.65;;;13.90;99.90;;;;;;5038019;28;20020;-88
2022/04/16 06:36:53;;;;;;;2.60;1.80;;;13.90;99.90;;;;;;5038171;28;20029;-88
2022/04/16 06:39:19;;;;;;;3.25;1.50;;;13.90;99.90;;;;;;5056248;28;20103;-88
2022/04/16 06:41:45;;;;;;;2.30;1.58;;;13.90;99.90;;;;;;5038462;28;20067;-88
2022/04/16 06:44:10;;;;;;;4.53;1.88;;;13.90;99.90;;;;;;5056527;28;20052;-88
2022/04/16 06:46:36;;;;;;;2.28;1.60;;;13.90;99.90;;;;;;5038192;28;20160;-88
2022/04/16 06:49:01;;;;;;;2.30;1.55;;;13.90;99.90;;;;;;5056171;28;20021;-88
2022/04/16 06:51:27;;;;;;;2.17;1.40;;;13.90;99.90;;;;;;5038247;28;20021;-88
2022/04/16 06:53:53;;;;;;;2.13;1.58;;;13.90;99.90;;;;;;5038240;28;20040;-87
2022/04/16 06:56:18;;;;;;;2.42;1.63;;;13.90;99.90;;;;;;5037740;28;20477;-88
2022/04/16 06:58:44;;;;;;;2.05;1.42;;;13.90;99.90;;;;;;5037568;28;20036;-88
2022/04/16 07:01:10;;;;;;;1.73;1.48;;;13.90;99.90;;;;;;5037544;28;20025;-88
2022/04/16 07:03:35;;;;;;;2.22;1.50;;;13.90;99.90;;;;;;5037409;28;20029;-88
2022/04/16 07:06:01;;;;;;;3.08;1.52;;;13.90;99.90;;;;;;5037311;28;20064;-88
2022/04/16 07:08:27;;;;;;;3.83;1.50;;;13.90;99.90;;;;;;5037365;28;20028;-87
2022/04/16 07:10:53;;;;;;;3.28;1.50;;;13.90;99.90;;;;;;5055122;28;20013;-87
2022/04/16 07:13:18;;;;;;;2.22;1.63;;;13.90;99.90;;;;;;5037264;28;20025;-87
2022/04/16 07:15:45;;;;;;;2.55;1.50;;;13.90;99.90;;;;;;5037241;28;20028;-87
2022/04/16 07:18:10;;;;;;;3.10;1.42;;;13.90;99.90;;;;;;5055013;28;20021;-87
2022/04/16 07:20:36;;;;;;;2.17;1.70;;;13.90;99.90;;;;;;5036936;28;20025;-87
2022/04/16 07:23:02;;;;;;;1.90;1.60;;;13.90;99.90;;;;;;5054989;28;20024;-87
2022/04/16 07:25:27;;;;;;;2.00;1.52;;;13.90;99.90;;;;;;5037006;28;20036;-87
2022/04/16 07:27:53;;;;;;;1.55;1.40;;;13.90;99.90;;;;;;5036911;28;20029;-87
2022/04/16 07:30:19;;;;;;;1.77;1.33;;;13.90;99.90;;;;;;5036817;28;20044;-87
2022/04/16 07:32:44;;;;;;;1.75;1.20;;;13.80;99.90;;;;;;5036881;28;20206;-87
2022/04/16 07:35:10;;;;;;;1.90;1.70;;;13.80;99.90;;;;;;5037179;28;20021;-87
2022/04/16 07:37:36;;;;;;;1.77;1.42;;;13.90;99.90;;;;;;5037199;28;20029;-87
2022/04/16 07:40:02;;;;;;;1.70;1.27;;;13.80;99.90;;;;;;5054997;28;20024;-88
2022/04/16 07:42:28;;;;;;;1.70;1.30;;;13.90;99.90;;;;;;5054550;28;20032;-87
2022/04/16 07:44:54;;;;;;;2.33;1.83;;;13.80;99.90;;;;;;5036891;28;20446;-87
2022/04/16 07:47:20;;;;;;;1.95;1.45;;;13.90;99.90;;;;;;5054794;28;20025;-87
2022/04/16 07:49:46;;;;;;;3.10;1.45;;;13.80;99.90;;;;;;5054635;28;20057;-87
2022/04/16 07:52:12;;;;;;;3.22;2.00;;;13.80;99.90;;;;;;5054680;28;20384;-87
2022/04/16 07:54:37;;;;;;;1.80;1.42;;;13.90;99.90;;;;;;5036475;28;20028;-87
2022/04/16 07:57:07;;;;;;;1.67;1.55;;;13.90;99.90;;;;;;5036425;28;20029;-87
2022/04/16 07:59:33;;;;;;;3.45;1.77;;;13.90;99.90;;;;;;5054255;28;20024;-87
2022/04/16 08:01:59;;;;;;;2.28;1.75;;;13.80;99.90;;;;;;5036254;28;20077;-87
2022/04/16 08:04:25;;;;;;;1.90;1.65;;;13.90;99.90;;;;;;5036262;28;20040;-87
2022/04/16 08:06:50;;;;;;;2.85;2.00;;;13.90;99.90;;;;;;5036151;28;20025;-87
2022/04/16 08:09:19;;;;;;;2.25;1.70;;;13.90;99.90;;;;;;5054069;28;20427;-87
2022/04/16 08:11:48;;;;;;;2.88;2.13;;;13.90;99.90;;;;;;5036654;28;20017;-87
2022/04/16 08:14:14;;;;;;;2.20;1.83;;;13.80;99.90;;;;;;5036798;28;20507;-87
2022/04/16 08:16:39;;;;;;;2.50;2.00;;;13.90;99.90;;;;;;5036545;28;20029;-87
2022/04/16 08:19:05;;;;;;;3.30;1.90;;;13.90;99.90;;;;;;5035997;28;20025;-87
2022/04/16 08:21:33;;;;;;;3.28;1.88;;;13.90;99.90;;;;;;5036328;28;20063;-87
2022/04/16 08:24:13;;;;;;;2.97;1.90;;;13.90;99.90;;;;;;5036610;28;20025;-87
2022/04/16 08:26:40;;;;;;;2.83;2.00;;;13.90;99.90;;;;;;5036329;28;20486;-87
2022/04/16 08:29:07;;;;;;;4.90;2.58;;;13.90;99.90;;;;;;5054388;28;20450;-87
2022/04/16 08:31:33;;;;;;;2.95;2.28;;;13.90;99.90;;;;;;5035833;28;20104;-87
2022/04/16 08:33:59;;;;;;;3.35;2.50;;;13.90;99.90;;;;;;5035739;28;20092;-88
2022/04/16 08:36:26;;;;;;;3.42;2.40;;;13.90;99.90;;;;;;5035753;28;20029;-88
2022/04/16 08:38:52;;;;;;;2.95;2.20;;;13.90;99.90;;;;;;5035719;28;20484;-87
2022/04/16 08:41:18;;;;;;;4.30;2.40;;;14.00;99.90;;;;;;5035695;28;20502;-87
2022/04/16 08:43:45;;;;;;;3.22;2.22;;;14.00;99.90;;;;;;5035085;28;20029;-86
2022/04/16 08:46:11;;;;;;;8.60;4.88;;;13.90;99.90;;;;;;5055006;28;20028;-86
2022/04/16 08:48:37;;;;;;;6.10;3.90;;;13.60;99.90;;;;;;5035948;28;20074;-87
2022/04/16 08:51:03;;;;;;;4.82;3.95;;;13.40;99.90;;;;;;5035637;28;20032;-87
2022/04/16 08:53:29;;;;;;;5.97;3.97;;;13.40;99.90;;;;;;5036130;28;20017;-87
2022/04/16 08:55:55;;;;;;;3.72;3.17;;;13.50;99.90;;;;;;5035654;28;20100;-87
2022/04/16 08:58:20;;;;;;;5.72;3.60;;;13.70;99.90;;;;;;5053267;28;20461;-87
2022/04/16 09:00:47;;;;;;;5.22;3.70;;;13.70;99.90;;;;;;5035956;28;20025;-88
2022/04/16 09:03:12;;;;;;;3.90;3.20;;;13.90;99.90;;;;;;5035540;28;20020;-87
2022/04/16 09:05:38;;;;;;;4.07;2.90;;;14.00;99.90;;;;;;5035478;28;20078;-87
2022/04/16 09:08:04;;;;;;;4.68;3.17;;;14.10;99.90;;;;;;5053016;28;20035;-87
2022/04/16 09:10:32;;;;;;;4.13;3.47;;;14.10;99.90;;;;;;5035212;28;20021;-87
2022/04/16 09:13:03;;;;;;;4.13;3.00;;;14.20;99.90;;;;;;5035308;28;20074;-87
2022/04/16 09:15:30;;;;;;;4.47;3.03;;;14.30;99.90;;;;;;5053002;28;20377;-88
2022/04/16 09:18:00;;;;;;;4.45;3.05;;;14.30;99.90;;;;;;5035088;28;20033;-87
2022/04/16 09:20:40;;;;;;;5.43;3.13;;;14.40;99.90;;;;;;5053268;28;20472;-87
2022/04/16 09:23:17;;;;;;;4.28;3.15;;;14.40;99.90;;;;;;5035228;28;20397;-87
2022/04/16 09:25:45;;;;;;;5.30;3.05;;;14.40;99.90;;;;;;5035105;28;20090;-87
2022/04/16 09:28:13;;;;;;;3.13;2.55;;;14.50;99.90;;;;;;5035017;28;20049;-87
2022/04/16 09:30:52;;;;;;;5.45;3.20;;;14.40;99.90;;;;;;5034927;28;20485;-87
2022/04/16 09:33:18;;;;;;;4.65;2.80;;;14.40;99.90;;;;;;5034995;28;20071;-87
2022/04/16 09:35:46;;;;;;;3.95;2.88;;;14.40;99.90;;;;;;5034854;28;20108;-87
2022/04/16 09:38:12;;;;;;;3.25;2.63;;;14.40;99.90;;;;;;5053063;28;20017;-88
2022/04/16 09:40:38;;;;;;;3.42;2.55;;;14.40;99.90;;;;;;5035543;28;20021;-87
2022/04/16 09:43:06;;;;;;;3.35;2.78;;;14.40;99.90;;;;;;5035488;28;20052;-87
2022/04/16 09:45:32;;;;;;;5.15;3.20;;;14.40;99.90;;;;;;5034872;28;20025;-87
2022/04/16 09:47:59;;;;;;;3.42;2.47;;;14.40;99.90;;;;;;5034765;28;20092;-87
2022/04/16 09:50:27;;;;;;;3.72;2.58;;;14.40;99.90;;;;;;5034636;28;20545;-87
2022/04/16 09:52:57;;;;;;;3.28;2.33;;;14.30;99.90;;;;;;5052661;28;20039;-87
2022/04/16 09:55:25;;;;;;;3.78;2.55;;;14.30;99.90;;;;;;5036878;28;20021;-87
2022/04/16 09:57:58;;;;;;;3.95;2.90;;;14.20;99.90;;;;;;5038634;28;20029;-87
2022/04/16 10:00:25;;;;;;;2.47;2.22;;;14.20;99.90;;;;;;5038642;28;20108;-87
2022/04/16 10:02:52;;;;;;;4.18;2.80;;;14.20;99.90;;;;;;5056473;28;20590;-87
2022/04/16 10:05:20;;;;;;;3.25;2.40;;;14.20;99.90;;;;;;5056441;28;20025;-87
2022/04/16 10:07:47;;;;;;;3.58;2.63;;;14.20;99.90;;;;;;5056272;28;20111;-87
2022/04/16 10:10:18;;;;;;;5.05;2.42;;;14.10;99.90;;;;;;5038444;28;20506;-87
2022/04/16 10:13:04;;;;;;;3.35;2.67;;;14.10;99.90;;;;;;5038443;28;20036;-87
2022/04/16 10:15:48;;;;;;;3.08;2.42;;;14.10;99.90;;;;;;5038377;28;20029;-87
2022/04/16 10:18:14;;;;;;;3.60;2.60;;;14.10;99.90;;;;;;5056600;28;20476;-87
2022/04/16 10:20:50;;;;;;;6.38;4.78;;;14.10;99.90;;;;;;5039491;28;20028;-87
2022/04/16 10:23:25;;;;;;;7.50;4.90;;;13.50;99.90;;;;;;5039659;28;20082;-85
2022/04/16 10:25:51;;;;;;;5.90;4.85;;;13.00;99.90;;;;;;5039166;28;20079;-85
2022/04/16 10:28:23;;;;;;;7.03;4.57;;;12.90;99.90;;;;;;5038135;28;20025;-86
2022/04/16 10:30:54;;;;;;;6.72;4.25;;;13.00;99.90;;;;;;5038071;28;20112;-86
2022/04/16 10:33:24;;;;;;;5.28;4.20;;;13.20;99.90;;;;;;5037896;28;20025;-86
2022/04/16 10:35:58;;;;;;;8.65;4.55;;;13.30;99.90;;;;;;5037997;28;20036;-86
2022/04/16 10:38:38;;;;;;;;;;;13.40;99.90;;;;;;5038345;28;20082;-87
2022/04/16 10:41:18;;;;;;;5.50;4.00;;;13.50;99.90;;;;;;5037969;28;19915;-88
2022/04/16 10:43:53;;;;;;;5.07;3.53;;;13.60;99.90;;;;;;5038317;28;20021;-87
2022/04/16 10:46:19;;;;;;;4.65;3.65;;;13.70;99.90;;;;;;5038078;28;20103;-87
2022/04/16 10:48:45;;;;;;;4.97;3.80;;;13.80;99.90;;;;;;5038332;28;20063;-87
2022/04/16 10:51:11;;;;;;;5.43;3.75;;;13.80;99.90;;;;;;5038230;28;20025;-87
2022/04/16 10:53:38;;;;;;;5.93;4.22;;;13.80;99.90;;;;;;5055513;28;20388;-87
2022/04/16 10:56:14;;;;;;;5.13;3.55;;;13.90;99.90;;;;;;5037726;28;20491;-87
2022/04/16 10:58:42;;;;;;;3.65;3.25;;;13.90;99.90;;;;;;5037394;28;20425;-87
2022/04/16 11:01:13;;;;;;;4.63;3.50;;;14.00;99.90;;;;;;5037453;28;20053;-87
2022/04/16 11:03:45;;;;;;;4.35;3.05;;;14.00;99.90;;;;;;5037710;28;20048;-87
2022/04/16 11:06:11;;;;;;;4.45;3.33;;;14.10;99.90;;;;;;5037045;28;20484;-87
2022/04/16 11:08:38;;;;;;;5.65;3.78;;;14.10;99.90;;;;;;5037608;28;20035;-87
2022/04/16 11:11:04;;;;;;;3.47;2.90;;;14.20;99.90;;;;;;5037735;28;20021;-87
2022/04/16 11:13:31;;;;;;;3.80;2.90;;;14.20;99.90;;;;;;5037599;28;20029;-87
2022/04/16 11:16:01;;;;;;;4.07;3.28;;;14.30;99.90;;;;;;5055532;28;20029;-87
2022/04/16 11:18:37;;;;;;;3.92;2.80;;;14.40;99.90;;;;;;5037442;28;20490;-87
2022/04/16 11:21:07;;;;;;;4.45;3.10;;;14.40;99.90;;;;;;5037075;28;20134;-87
2022/04/16 11:24:03;;;;;;;3.65;2.70;;;14.50;99.90;;;;;;5054519;28;20037;-87
2022/04/16 11:34:43;;;;;;;4.65;2.63;;;14.50;99.90;;;;;;5055335;28;20079;-87
2022/04/16 11:37:09;;;;;;;3.03;2.65;;;14.40;99.90;;;;;;5036678;28;20423;-87
2022/04/16 11:39:35;;;;;;;5.28;2.90;;;14.50;99.90;;;;;;5054588;28;20032;-87
2022/04/16 11:42:07;;;;;;;3.63;2.70;;;14.40;99.90;;;;;;5036647;28;20021;-87
2022/04/16 11:44:38;;;;;;;3.67;2.85;;;14.40;99.90;;;;;;5036589;28;20021;-87
2022/04/16 11:47:14;;;;;;;6.13;3.60;;;14.40;99.90;;;;;;5036401;28;20040;-87
2022/04/16 11:49:43;;;;;;;3.90;3.03;;;14.40;99.90;;;;;;5036545;28;20096;-87
2022/04/16 11:52:10;;;;;;;4.70;3.35;;;14.30;99.90;;;;;;5036326;28;20442;-88
2022/04/16 11:54:36;;;;;;;4.82;3.67;;;14.30;99.90;;;;;;5036378;28;20118;-87
2022/04/16 11:57:02;;;;;;;4.65;3.58;;;14.30;99.90;;;;;;5036322;28;20025;-87
2022/04/16 11:59:29;;;;;;;5.22;3.45;;;14.30;99.90;;;;;;5036405;28;20036;-87
2022/04/16 12:02:08;;;;;;;5.00;3.30;;;14.30;99.90;;;;;;5054220;28;20025;-87
2022/04/16 12:04:39;;;;;;;4.43;3.40;;;14.30;99.90;;;;;;5036284;28;20025;-87
2022/04/16 12:07:13;;;;;;;4.90;2.97;;;14.30;99.90;;;;;;5054127;28;20074;-87
2022/04/16 12:09:49;;;;;;;4.70;3.30;;;14.20;99.90;;;;;;5036130;28;20526;-88
2022/04/16 12:12:16;;;;;;;4.70;3.25;;;14.20;99.90;;;;;;5036033;28;20025;-87
2022/04/16 12:14:46;;;;;;;5.07;3.33;;;14.30;99.90;;;;;;5035882;28;20388;-87
2022/04/16 12:17:27;;;;;;;4.13;3.20;;;14.30;99.90;;;;;;5035164;28;20033;-87
2022/04/16 12:20:12;;;;;;;4.38;2.60;;;14.20;99.90;;;;;;5036178;28;20079;-87
2022/04/16 12:22:56;;;;;;;;;;;14.30;99.90;;;;;;5054039;28;20059;-88
2022/04/16 12:25:23;;;;;;;3.78;2.78;;;14.30;99.90;;;;;;5035810;28;20366;-88
2022/04/16 12:27:54;;;;;;;3.25;2.83;;;14.30;99.90;;;;;;5035697;28;20032;-87
2022/04/16 12:30:24;;;;;;;4.88;2.80;;;14.40;99.90;;;;;;5053820;28;20048;-88
2022/04/16 12:33:04;;;;;;;3.00;2.70;;;14.50;99.90;;;;;;5053942;28;20147;-88
2022/04/16 12:35:31;;;;;;;3.28;2.65;;;14.60;99.90;;;;;;5036416;28;20025;-88
2022/04/16 12:37:58;;;;;;;3.80;2.63;;;14.80;99.90;;;;;;5035549;28;20468;-88
2022/04/16 12:40:26;;;;;;;3.42;2.50;;;14.90;99.90;;;;;;5035628;28;20474;-88
2022/04/16 12:42:53;;;;;;;3.83;2.95;;;14.90;99.90;;;;;;5053424;28;20024;-89
2022/04/16 12:45:20;;;;;;;3.58;2.80;;;15.10;99.90;;;;;;5053412;28;20100;-88
2022/04/16 12:47:45;;;;;;;3.53;2.60;;;15.30;99.90;;;;;;5035548;28;20031;-87
2022/04/16 12:50:13;;;;;;;3.78;2.60;;;15.40;99.80;;;;;;5036276;28;20108;-88
2022/04/16 12:52:40;;;;;;;3.78;2.85;;;15.70;99.20;;;;;;5035575;28;20086;-87
2022/04/16 12:55:06;;;;;;;3.10;2.38;;;16.00;98.50;;;;;;5035427;28;20021;-88
2022/04/16 12:57:32;;;;;;;3.40;2.30;;;16.20;98.60;;;;;;5035386;28;20074;-87
2022/04/16 12:59:57;;;;;;;3.78;2.95;;;16.30;98.40;;;;;;5035345;28;20032;-88
2022/04/16 13:02:24;;;;;;;5.10;2.60;;;16.30;98.20;;;;;;5035258;28;20025;-88
2022/04/16 13:04:50;;;;;;;3.20;2.65;;;16.50;97.90;;;;;;5035218;28;20047;-88
2022/04/16 13:07:16;;;;;;;5.20;2.80;;;16.60;97.40;;;;;;5035038;28;20026;-88
2022/04/16 13:09:42;;;;;;;3.47;2.65;;;16.70;97.20;;;;;;5035161;28;20032;-88